createdAt,value
2018-03-25T00:00:22.556Z,18.83
2018-03-25T00:02:50.000Z,15.60
2018-03-25T00:05:17.439Z,14.90
2018-03-25T00:07:44.916Z,14.80
2018-03-25T00:10:12.352Z,16.03
2018-03-25T00:12:39.795Z,14.60
2018-03-25T00:15:08.019Z,14.43
2018-03-25T00:17:35.464Z,16.80
2018-03-25T00:20:02.911Z,17.13
2018-03-25T00:22:30.395Z,18.13
2018-03-25T00:24:57.827Z,16.93
2018-03-25T00:27:25.281Z,17.20
2018-03-25T00:29:52.730Z,14.70
2018-03-25T00:32:20.840Z,17.23
2018-03-25T00:34:48.274Z,16.10
2018-03-25T00:37:15.726Z,19.37
2018-03-25T00:39:43.181Z,19.87
2018-03-25T00:42:10.638Z,19.17
2018-03-25T00:44:38.095Z,18.03
2018-03-25T00:47:05.553Z,21.43
2018-03-25T00:49:33.010Z,18.73
2018-03-25T00:52:00.464Z,21.00
2018-03-25T00:54:27.904Z,15.30
2018-03-25T00:56:55.360Z,14.97
2018-03-25T00:59:22.806Z,18.80
2018-03-25T01:01:51.034Z,14.27
2018-03-25T01:04:18.487Z,18.40
2018-03-25T01:06:45.962Z,19.50
2018-03-25T01:09:13.408Z,17.73
2018-03-25T01:11:40.862Z,17.83
2018-03-25T01:14:08.334Z,18.57
2018-03-25T01:16:35.776Z,18.77
2018-03-25T01:19:03.227Z,25.67
2018-03-25T01:21:30.675Z,19.57
2018-03-25T01:23:58.208Z,15.40
2018-03-25T01:26:26.408Z,19.10
2018-03-25T01:28:53.868Z,19.37
2018-03-25T01:31:21.332Z,19.60
2018-03-25T01:33:48.773Z,16.37
2018-03-25T01:36:16.229Z,18.40
2018-03-25T01:38:43.664Z,18.37
2018-03-25T01:41:11.127Z,20.00
2018-03-25T01:43:38.580Z,20.80
2018-03-25T01:46:06.023Z,21.03
2018-03-25T01:48:34.243Z,15.10
2018-03-25T01:51:01.689Z,24.20
2018-03-25T01:53:29.159Z,16.67
2018-03-25T01:55:56.600Z,16.70
2018-03-25T01:58:24.419Z,19.47
2018-03-25T02:00:52.055Z,19.47
2018-03-25T02:03:19.503Z,17.17
2018-03-25T02:05:46.976Z,21.90
2018-03-25T02:08:14.416Z,23.93
2018-03-25T02:10:41.868Z,29.10
2018-03-25T02:13:09.327Z,20.00
2018-03-25T02:15:36.789Z,20.27
2018-03-25T02:18:04.259Z,21.00
2018-03-25T02:20:31.726Z,13.73
2018-03-25T02:23:00.676Z,17.97
2018-03-25T02:25:28.136Z,20.20
2018-03-25T02:27:55.633Z,19.87
2018-03-25T02:30:23.051Z,22.17
2018-03-25T02:32:50.505Z,23.03
2018-03-25T02:35:18.315Z,15.53
2018-03-25T02:37:45.768Z,24.60
2018-03-25T02:40:13.212Z,22.40
2018-03-25T02:42:40.666Z,25.13
2018-03-25T02:45:08.124Z,20.03
2018-03-25T02:47:35.590Z,25.87
2018-03-25T02:50:03.071Z,20.47
2018-03-25T02:52:31.388Z,19.73
2018-03-25T02:54:58.865Z,22.30
2018-03-25T02:57:26.326Z,19.90
2018-03-25T02:59:53.755Z,25.00
2018-03-25T03:02:21.224Z,19.83
2018-03-25T03:04:48.680Z,18.83
2018-03-25T03:07:16.124Z,19.07
2018-03-25T03:09:43.583Z,18.00
2018-03-25T03:12:11.043Z,18.60
2018-03-25T03:14:38.505Z,21.63
2018-03-25T03:17:05.951Z,15.07
2018-03-25T03:19:33.407Z,17.00
2018-03-25T03:22:00.851Z,19.50
2018-03-25T03:24:28.339Z,19.90
2018-03-25T03:26:55.788Z,20.90
2018-03-25T03:29:23.239Z,19.03
2018-03-25T03:31:50.696Z,17.50
2018-03-25T03:34:18.151Z,20.90
2018-03-25T03:36:45.606Z,17.10
2018-03-25T03:39:13.064Z,18.20
2018-03-25T03:41:40.523Z,17.97
2018-03-25T03:44:07.981Z,20.20
2018-03-25T03:46:35.443Z,18.53
2018-03-25T03:49:02.892Z,19.70
2018-03-25T03:51:30.344Z,23.67
2018-03-25T03:53:57.807Z,17.13
2018-03-25T03:56:25.266Z,21.57
2018-03-25T03:58:52.728Z,20.73
2018-03-25T04:01:20.180Z,18.20
2018-03-25T04:03:47.628Z,17.23
2018-03-25T04:06:15.603Z,21.43
2018-03-25T04:08:43.067Z,20.50
2018-03-25T04:11:10.532Z,19.67
2018-03-25T04:13:37.979Z,20.40
2018-03-25T04:16:05.431Z,18.13
2018-03-25T04:18:32.928Z,18.30
2018-03-25T04:21:00.412Z,22.07
2018-03-25T04:23:28.623Z,17.47
2018-03-25T04:25:56.079Z,12.30
2018-03-25T04:28:23.556Z,18.93
2018-03-25T04:30:51.011Z,20.27
2018-03-25T04:33:18.465Z,21.77
2018-03-25T04:35:45.925Z,23.17
2018-03-25T04:38:13.380Z,18.57
2018-03-25T04:40:40.832Z,18.77
2018-03-25T04:43:08.280Z,21.67
2018-03-25T04:45:35.745Z,20.27
2018-03-25T04:48:03.223Z,19.77
2018-03-25T04:50:30.675Z,19.80
2018-03-25T04:52:58.124Z,19.47
2018-03-25T04:55:25.579Z,17.90
2018-03-25T04:57:53.039Z,17.33
2018-03-25T05:00:20.496Z,19.27
2018-03-25T05:02:47.952Z,19.07
2018-03-25T05:05:15.422Z,23.80
2018-03-25T05:07:42.863Z,16.50
2018-03-25T05:10:10.320Z,21.13
2018-03-25T05:12:37.768Z,20.13
2018-03-25T05:15:05.234Z,19.47
2018-03-25T05:17:32.781Z,18.00
2018-03-25T05:20:00.219Z,24.83
2018-03-25T05:22:27.659Z,26.10
2018-03-25T05:24:55.888Z,25.80
2018-03-25T05:27:23.343Z,27.97
2018-03-25T05:29:50.800Z,21.27
2018-03-25T05:32:18.255Z,20.30
2018-03-25T05:34:45.704Z,21.83
2018-03-25T05:37:13.159Z,20.90
2018-03-25T05:39:40.613Z,26.13
2018-03-25T05:42:08.084Z,21.20
2018-03-25T05:44:35.595Z,19.83
2018-03-25T05:47:02.988Z,28.57
2018-03-25T05:49:30.453Z,27.67
2018-03-25T05:51:57.896Z,29.03
2018-03-25T05:54:25.375Z,30.20
2018-03-25T05:56:52.820Z,25.50
2018-03-25T05:59:20.271Z,25.70
2018-03-25T06:01:47.734Z,24.10
2018-03-25T06:04:15.196Z,26.00
2018-03-25T06:06:42.658Z,23.60
2018-03-25T06:09:10.104Z,27.27
2018-03-25T06:11:38.411Z,27.03
2018-03-25T06:14:05.855Z,24.80
2018-03-25T06:16:33.302Z,25.43
2018-03-25T06:19:00.760Z,27.40
2018-03-25T06:21:28.208Z,21.17
2018-03-25T06:23:55.671Z,26.37
2018-03-25T06:26:23.120Z,22.87
2018-03-25T06:28:50.567Z,20.63
2018-03-25T06:31:18.024Z,25.13
2018-03-25T06:33:45.466Z,20.37
2018-03-25T06:36:12.921Z,22.13
2018-03-25T06:38:40.355Z,18.80
2018-03-25T06:41:08.588Z,22.53
2018-03-25T06:43:36.033Z,23.17
2018-03-25T06:46:03.482Z,19.40
2018-03-25T06:48:30.941Z,18.83
2018-03-25T06:50:58.363Z,39.90
2018-03-25T06:53:26.584Z,55.70
2018-03-25T06:55:54.023Z,43.93
2018-03-25T06:58:21.479Z,28.63
2018-03-25T07:00:48.934Z,17.13
2018-03-25T07:03:16.367Z,16.07
2018-03-25T07:05:43.823Z,20.43
2018-03-25T07:08:12.029Z,19.10
2018-03-25T07:10:39.500Z,14.13
2018-03-25T07:13:06.935Z,16.83
2018-03-25T07:15:34.398Z,17.20
2018-03-25T07:18:01.837Z,15.07
2018-03-25T07:20:29.271Z,15.10
2018-03-25T07:22:57.491Z,13.97
2018-03-25T07:25:24.939Z,17.47
2018-03-25T07:27:52.396Z,15.63
2018-03-25T07:30:19.860Z,15.90
2018-03-25T07:32:47.319Z,16.20
2018-03-25T07:35:14.775Z,14.70
2018-03-25T07:37:42.279Z,13.60
2018-03-25T07:40:09.695Z,14.17
2018-03-25T07:42:37.146Z,15.00
2018-03-25T07:45:04.833Z,15.30
2018-03-25T07:47:32.276Z,13.43
2018-03-25T07:49:59.744Z,14.13
2018-03-25T07:52:27.191Z,15.37
2018-03-25T07:54:54.632Z,16.97
2018-03-25T07:57:22.087Z,15.07
2018-03-25T07:59:49.547Z,14.10
2018-03-25T08:02:17.012Z,14.27
2018-03-25T08:04:44.470Z,16.53
2018-03-25T08:07:11.931Z,14.70
2018-03-25T08:09:39.383Z,18.10
2018-03-25T08:12:06.843Z,14.27
2018-03-25T08:14:34.300Z,14.30
2018-03-25T08:17:01.772Z,14.63
2018-03-25T08:19:29.216Z,17.10
2018-03-25T08:21:56.668Z,24.80
2018-03-25T08:24:27.136Z,16.60
2018-03-25T08:26:54.587Z,17.63
2018-03-25T08:29:22.047Z,15.47
2018-03-25T08:31:49.495Z,15.77
2018-03-25T08:34:18.470Z,15.10
2018-03-25T08:36:45.931Z,16.83
2018-03-25T08:39:13.380Z,16.53
2018-03-25T08:41:40.855Z,16.53
2018-03-25T08:44:08.311Z,14.53
2018-03-25T08:46:35.829Z,14.80
2018-03-25T08:49:03.250Z,15.40
2018-03-25T08:51:31.463Z,19.03
2018-03-25T08:53:58.924Z,20.30
2018-03-25T08:56:26.376Z,18.33
2018-03-25T08:58:53.830Z,17.30
2018-03-25T09:01:21.303Z,19.17
2018-03-25T09:03:48.752Z,20.23
2018-03-25T09:06:16.213Z,16.77
2018-03-25T09:08:43.663Z,19.77
2018-03-25T09:11:11.130Z,17.57
2018-03-25T09:13:38.569Z,20.37
2018-03-25T09:16:06.025Z,19.20
2018-03-25T09:18:33.512Z,18.60
2018-03-25T09:21:00.967Z,19.23
2018-03-25T09:23:28.412Z,16.23
2018-03-25T09:25:55.867Z,18.73
2018-03-25T09:28:23.323Z,14.77
2018-03-25T09:30:50.780Z,14.20
2018-03-25T09:33:18.228Z,17.87
2018-03-25T09:35:45.699Z,13.83
2018-03-25T09:38:13.143Z,16.17
2018-03-25T09:40:40.598Z,17.73
2018-03-25T09:43:08.052Z,15.53
2018-03-25T09:45:35.495Z,16.33
2018-03-25T09:48:02.952Z,15.10
2018-03-25T09:50:30.426Z,15.60
2018-03-25T09:52:57.888Z,18.40
2018-03-25T09:55:25.360Z,17.80
2018-03-25T09:57:52.811Z,16.33
2018-03-25T10:00:25.924Z,16.37
2018-03-25T10:03:03.280Z,18.80
2018-03-25T10:05:30.736Z,17.20
2018-03-25T10:07:58.195Z,19.07
2018-03-25T10:10:25.648Z,19.90
2018-03-25T10:12:53.108Z,18.80
2018-03-25T10:15:20.558Z,15.67
2018-03-25T10:17:48.050Z,17.57
2018-03-25T10:20:15.492Z,16.23
2018-03-25T10:22:42.945Z,17.23
2018-03-25T10:25:10.403Z,16.80
2018-03-25T10:27:37.868Z,16.90
2018-03-25T10:30:05.319Z,15.47
2018-03-25T10:32:32.776Z,15.50
2018-03-25T10:35:00.235Z,16.63
2018-03-25T10:37:27.676Z,18.00
2018-03-25T10:39:55.143Z,15.40
2018-03-25T10:42:22.612Z,16.77
2018-03-25T10:44:50.182Z,16.60
2018-03-25T10:47:17.620Z,15.53
2018-03-25T10:49:45.068Z,17.23
2018-03-25T10:52:12.525Z,16.30
2018-03-25T10:54:39.975Z,14.10
2018-03-25T10:57:07.438Z,16.40
2018-03-25T10:59:34.892Z,17.17
2018-03-25T11:02:02.384Z,15.70
2018-03-25T11:04:29.857Z,16.57
2018-03-25T11:06:57.310Z,17.40
2018-03-25T11:09:24.759Z,16.37
2018-03-25T11:11:52.365Z,16.83
2018-03-25T11:14:19.824Z,16.37
2018-03-25T11:16:47.271Z,17.47
2018-03-25T11:19:15.501Z,15.53
2018-03-25T11:21:42.948Z,16.37
2018-03-25T11:24:10.405Z,16.90
2018-03-25T11:26:37.863Z,15.83
2018-03-25T11:29:05.333Z,13.87
2018-03-25T11:31:32.791Z,13.87
2018-03-25T11:34:00.243Z,16.97
2018-03-25T11:36:27.708Z,15.13
2018-03-25T11:38:55.173Z,16.20
2018-03-25T11:41:22.626Z,14.00
2018-03-25T11:43:50.084Z,17.53
2018-03-25T11:46:17.535Z,13.70
2018-03-25T11:48:45.007Z,17.30
2018-03-25T11:51:13.232Z,14.43
2018-03-25T11:53:40.685Z,19.13
2018-03-25T11:56:08.139Z,14.93
2018-03-25T11:58:35.594Z,16.30
2018-03-25T12:01:03.080Z,18.37
2018-03-25T12:03:30.519Z,17.07
2018-03-25T12:05:57.963Z,15.33
2018-03-25T12:08:25.420Z,18.50
2018-03-25T12:10:52.883Z,14.83
2018-03-25T12:13:20.349Z,15.40
2018-03-25T12:15:47.800Z,15.43
2018-03-25T12:18:15.251Z,14.07
2018-03-25T12:20:42.712Z,13.93
2018-03-25T12:23:10.180Z,15.33
2018-03-25T12:25:37.636Z,14.50
2018-03-25T12:28:05.088Z,18.20
2018-03-25T12:30:32.546Z,14.03
2018-03-25T12:32:59.999Z,15.03
2018-03-25T12:35:27.463Z,14.23
2018-03-25T12:37:54.947Z,15.40
2018-03-25T12:40:22.398Z,14.67
2018-03-25T12:42:49.851Z,14.60
2018-03-25T12:45:17.318Z,13.53
2018-03-25T12:47:44.776Z,14.17
2018-03-25T12:50:12.230Z,14.87
2018-03-25T12:52:39.679Z,14.53
2018-03-25T12:55:07.193Z,14.83
2018-03-25T12:57:34.589Z,16.30
2018-03-25T13:00:02.035Z,15.60
2018-03-25T13:02:29.499Z,15.10
2018-03-25T13:04:56.963Z,15.97
2018-03-25T13:07:24.416Z,16.00
2018-03-25T13:09:51.862Z,16.70
2018-03-25T13:12:19.327Z,15.27
2018-03-25T13:14:46.779Z,17.23
2018-03-25T13:17:14.228Z,16.50
2018-03-25T13:19:41.692Z,16.00
2018-03-25T13:22:09.140Z,15.03
2018-03-25T13:24:36.629Z,14.20
2018-03-25T13:27:04.048Z,17.23
2018-03-25T13:29:31.510Z,14.23
2018-03-25T13:31:58.960Z,13.80
2018-03-25T13:34:26.456Z,14.33
2018-03-25T13:36:53.879Z,15.27
2018-03-25T13:39:21.332Z,17.10
2018-03-25T13:41:48.833Z,17.13
2018-03-25T13:44:16.269Z,17.00
2018-03-25T13:46:43.707Z,13.93
2018-03-25T13:49:11.163Z,15.97
2018-03-25T13:51:38.619Z,16.20
2018-03-25T13:54:06.081Z,17.27
2018-03-25T13:56:33.531Z,19.03
2018-03-25T13:59:00.987Z,13.83
2018-03-25T14:01:28.447Z,16.90
2018-03-25T14:03:55.904Z,15.33
2018-03-25T14:06:23.369Z,13.90
2018-03-25T14:08:50.819Z,15.00
2018-03-25T14:11:18.272Z,15.67
2018-03-25T14:13:45.744Z,17.40
2018-03-25T14:16:13.187Z,16.37
2018-03-25T14:18:40.644Z,16.73
2018-03-25T14:21:08.108Z,16.23
2018-03-25T14:23:35.603Z,15.10
2018-03-25T14:26:03.056Z,17.10
2018-03-25T14:28:30.520Z,15.80
2018-03-25T14:30:57.980Z,15.30
2018-03-25T14:33:25.427Z,15.40
2018-03-25T14:35:52.884Z,13.73
2018-03-25T14:38:20.327Z,15.37
2018-03-25T14:40:47.781Z,16.20
2018-03-25T14:43:15.236Z,15.93
2018-03-25T14:45:42.983Z,14.13
2018-03-25T14:48:10.448Z,17.53
2018-03-25T14:50:37.916Z,15.03
2018-03-25T14:53:05.364Z,16.53
2018-03-25T14:55:32.831Z,18.17
2018-03-25T14:58:00.263Z,18.80
2018-03-25T15:00:27.720Z,20.07
2018-03-25T15:02:55.175Z,16.53
2018-03-25T15:05:22.636Z,16.97
2018-03-25T15:07:50.096Z,16.97
2018-03-25T15:10:18.328Z,16.93
2018-03-25T15:12:46.552Z,14.50
2018-03-25T15:15:14.000Z,16.40
2018-03-25T15:17:41.455Z,16.87
2018-03-25T15:20:08.915Z,18.00
2018-03-25T15:22:36.380Z,14.17
2018-03-25T15:25:03.840Z,17.20
2018-03-25T15:27:31.325Z,17.87
2018-03-25T15:29:58.768Z,18.87
2018-03-25T15:32:26.215Z,16.90
2018-03-25T15:34:53.667Z,18.03
2018-03-25T15:37:21.126Z,16.73
2018-03-25T15:39:48.592Z,17.40
2018-03-25T15:42:16.043Z,19.57
2018-03-25T15:44:43.496Z,19.40
2018-03-25T15:47:10.968Z,17.13
2018-03-25T15:49:38.424Z,15.57
2018-03-25T15:52:05.887Z,18.40
2018-03-25T15:54:33.347Z,15.33
2018-03-25T15:57:00.800Z,17.13
2018-03-25T15:59:28.248Z,13.80
2018-03-25T16:01:55.720Z,17.53
2018-03-25T16:04:24.159Z,14.60
2018-03-25T16:06:51.629Z,14.20
2018-03-25T16:09:19.075Z,14.80
2018-03-25T16:11:46.536Z,14.53
2018-03-25T16:14:13.996Z,14.27
2018-03-25T16:16:41.451Z,20.90
2018-03-25T16:19:08.936Z,17.33
2018-03-25T16:21:36.383Z,15.13
2018-03-25T16:24:03.840Z,13.73
2018-03-25T16:26:31.305Z,14.20
2018-03-25T16:28:58.756Z,16.77
2018-03-25T16:31:26.216Z,14.20
2018-03-25T16:33:53.667Z,14.60
2018-03-25T16:36:21.173Z,15.80
2018-03-25T16:38:48.599Z,16.07
2018-03-25T16:41:16.824Z,17.73
2018-03-25T16:43:44.279Z,16.43
2018-03-25T16:46:11.737Z,16.23
2018-03-25T16:48:39.191Z,17.30
2018-03-25T16:51:06.631Z,16.47
2018-03-25T16:53:34.864Z,16.63
2018-03-25T16:56:02.310Z,14.47
2018-03-25T16:58:29.767Z,17.70
2018-03-25T17:00:57.222Z,18.30
2018-03-25T17:03:24.671Z,17.10
2018-03-25T17:05:52.123Z,21.00
2018-03-25T17:08:19.580Z,20.73
2018-03-25T17:10:47.036Z,18.03
2018-03-25T17:13:14.496Z,16.87
2018-03-25T17:15:41.951Z,16.20
2018-03-25T17:18:09.400Z,17.80
2018-03-25T17:20:36.863Z,18.33
2018-03-25T17:23:04.315Z,18.30
2018-03-25T17:25:31.760Z,22.27
2018-03-25T17:27:59.975Z,17.77
2018-03-25T17:30:27.439Z,15.73
2018-03-25T17:32:54.884Z,14.37
2018-03-25T17:35:22.359Z,18.87
2018-03-25T17:37:49.805Z,13.43
2018-03-25T17:40:17.251Z,15.80
2018-03-25T17:42:44.719Z,23.03
2018-03-25T17:45:12.168Z,18.23
2018-03-25T17:47:39.610Z,20.40
2018-03-25T17:50:07.114Z,19.23
2018-03-25T17:52:34.523Z,17.93
2018-03-25T17:55:01.972Z,13.80
2018-03-25T17:57:29.437Z,14.20
2018-03-25T17:59:56.880Z,16.73
2018-03-25T18:02:24.327Z,17.60
2018-03-25T18:04:51.776Z,14.23
2018-03-25T18:07:19.979Z,13.17
2018-03-25T18:09:47.443Z,13.57
2018-03-25T18:12:14.891Z,17.17
2018-03-25T18:14:42.339Z,16.00
2018-03-25T18:17:33.458Z,15.17
2018-03-25T18:19:38.004Z,13.23
2018-03-25T18:22:05.451Z,14.10
2018-03-25T18:24:32.924Z,15.77
2018-03-25T18:27:00.358Z,11.20
2018-03-25T18:29:27.807Z,16.90
2018-03-25T18:31:55.264Z,14.27
2018-03-25T18:34:22.696Z,12.77
2018-03-25T18:36:50.899Z,11.50
2018-03-25T18:39:18.363Z,15.37
2018-03-25T18:41:45.792Z,14.67
2018-03-25T18:44:13.227Z,12.80
2018-03-25T18:46:41.439Z,12.53
2018-03-25T18:49:08.902Z,12.83
2018-03-25T18:51:36.332Z,16.40
2018-03-25T18:54:03.793Z,17.43
2018-03-25T18:56:31.244Z,15.70
2018-03-25T18:58:59.456Z,18.70
2018-03-25T19:01:26.909Z,12.90
2018-03-25T19:03:54.344Z,15.30
2018-03-25T19:06:21.806Z,15.73
2018-03-25T19:08:49.244Z,16.90
2018-03-25T19:11:17.456Z,16.60
2018-03-25T19:13:44.900Z,14.43
2018-03-25T19:16:12.353Z,16.07
2018-03-25T19:18:39.792Z,17.23
2018-03-25T19:21:07.243Z,14.20
2018-03-25T19:23:35.459Z,15.47
2018-03-25T19:26:02.904Z,16.73
2018-03-25T19:28:30.366Z,16.90
2018-03-25T19:30:57.811Z,14.73
2018-03-25T19:33:25.251Z,14.50
2018-03-25T19:35:52.725Z,13.40
2018-03-25T19:38:20.172Z,17.43
2018-03-25T19:40:47.620Z,12.40
2018-03-25T19:43:15.835Z,16.37
2018-03-25T19:45:43.280Z,14.03
2018-03-25T19:48:10.732Z,15.90
2018-03-25T19:50:38.176Z,16.00
2018-03-25T19:53:05.624Z,13.70
2018-03-25T19:55:33.091Z,17.70
2018-03-25T19:58:00.539Z,16.40
2018-03-25T20:00:27.980Z,13.60
2018-03-25T20:02:56.216Z,15.57
2018-03-25T20:05:23.659Z,13.60
2018-03-25T20:07:51.111Z,17.87
2018-03-25T20:10:18.564Z,16.03
2018-03-25T20:12:46.019Z,18.30
2018-03-25T20:15:13.481Z,13.40
2018-03-25T20:17:40.931Z,15.03
2018-03-25T20:20:08.375Z,13.17
2018-03-25T20:22:35.827Z,14.33
2018-03-25T20:25:03.274Z,15.97
2018-03-25T20:27:31.696Z,13.07
2018-03-25T20:29:59.143Z,16.00
2018-03-25T20:32:26.601Z,15.90
2018-03-25T20:34:54.053Z,16.87
2018-03-25T20:37:21.508Z,17.17
2018-03-25T20:39:48.984Z,17.37
2018-03-25T20:42:16.404Z,17.97
2018-03-25T20:44:43.852Z,18.00
2018-03-25T20:47:12.072Z,15.87
2018-03-25T20:49:39.532Z,16.43
2018-03-25T20:52:06.980Z,16.97
2018-03-25T20:54:34.429Z,16.70
2018-03-25T20:57:01.893Z,17.43
2018-03-25T20:59:29.337Z,20.30
2018-03-25T21:01:56.783Z,17.30
2018-03-25T21:04:24.244Z,21.13
2018-03-25T21:06:51.695Z,17.90
2018-03-25T21:09:19.175Z,17.00
2018-03-25T21:11:46.621Z,15.80
2018-03-25T21:14:14.074Z,19.53
2018-03-25T21:16:41.536Z,17.23
2018-03-25T21:19:08.964Z,19.83
2018-03-25T21:21:37.204Z,19.40
2018-03-25T21:24:05.619Z,18.73
2018-03-25T21:26:33.823Z,18.30
2018-03-25T21:29:01.291Z,25.33
2018-03-25T21:31:28.753Z,19.77
2018-03-25T21:33:56.201Z,23.47
2018-03-25T21:36:23.666Z,29.53
2018-03-25T21:38:51.108Z,23.83
2018-03-25T21:41:18.574Z,26.37
2018-03-25T21:43:46.031Z,27.83
2018-03-25T21:46:13.484Z,24.80
2018-03-25T21:48:40.940Z,27.30
2018-03-25T21:51:08.391Z,24.67
2018-03-25T21:53:35.847Z,24.77
2018-03-25T21:56:03.283Z,28.83
2018-03-25T21:58:30.736Z,26.00
2018-03-25T22:00:58.943Z,24.87
2018-03-25T22:03:26.456Z,27.50
2018-03-25T22:05:53.849Z,29.50
2018-03-25T22:08:21.310Z,28.13
2018-03-25T22:10:48.762Z,28.40
2018-03-25T22:13:16.196Z,25.33
2018-03-25T22:15:43.656Z,28.73
2018-03-25T22:18:11.108Z,28.60
2018-03-25T22:20:39.323Z,29.70
2018-03-25T22:23:06.772Z,29.00
2018-03-25T22:25:34.217Z,32.67
2018-03-25T22:28:02.432Z,27.63
2018-03-25T22:30:29.886Z,25.57
2018-03-25T22:32:57.334Z,31.33
2018-03-25T22:35:24.791Z,26.53
2018-03-25T22:37:52.236Z,25.23
2018-03-25T22:40:19.688Z,30.30
2018-03-25T22:42:47.143Z,29.97
2018-03-25T22:45:14.596Z,30.00
2018-03-25T22:47:42.035Z,25.70
2018-03-25T22:50:09.491Z,30.53
2018-03-25T22:52:36.936Z,29.27
2018-03-25T22:55:05.148Z,25.93
2018-03-25T22:57:32.616Z,31.10
2018-03-25T23:00:00.056Z,30.90
2018-03-25T23:02:27.511Z,35.07
2018-03-25T23:04:54.983Z,33.73
2018-03-25T23:07:22.438Z,31.53
2018-03-25T23:09:49.890Z,29.87
2018-03-25T23:12:17.352Z,31.60
2018-03-25T23:14:44.807Z,29.80
2018-03-25T23:17:12.251Z,32.13
2018-03-25T23:19:39.707Z,31.97
2018-03-25T23:22:07.160Z,29.77
2018-03-25T23:24:34.612Z,30.00
2018-03-25T23:27:02.085Z,30.37
2018-03-25T23:29:29.527Z,25.23
2018-03-25T23:31:56.990Z,32.33
2018-03-25T23:34:24.428Z,33.30
2018-03-25T23:36:52.647Z,28.57
2018-03-25T23:39:20.101Z,25.30
2018-03-25T23:41:47.572Z,27.67
2018-03-25T23:44:15.016Z,30.93
2018-03-25T23:46:42.467Z,28.17
2018-03-25T23:49:09.920Z,27.87
2018-03-25T23:51:37.364Z,27.17
2018-03-25T23:54:05.063Z,30.80
2018-03-25T23:56:32.516Z,30.17
2018-03-25T23:58:59.968Z,30.10
